createdAt,value
2023-02-16T00:00:47.920Z,101003.12
2023-02-16T00:03:22.356Z,101001.05
2023-02-16T00:05:54.371Z,101005.39
2023-02-16T00:08:22.496Z,101004.85
2023-02-16T00:11:09.385Z,101003.35
2023-02-16T00:13:53.153Z,101006.40
2023-02-16T00:16:23.572Z,101006.05
2023-02-16T00:18:51.920Z,101001.68
2023-02-16T00:21:20.069Z,100999.08
2023-02-16T00:23:50.914Z,100998.69
2023-02-16T00:26:25.005Z,100999.44
2023-02-16T00:28:54.193Z,101001.44
2023-02-16T00:31:26.864Z,101000.53
2023-02-16T00:33:58.425Z,101002.71
2023-02-16T00:36:26.719Z,101002.30
2023-02-16T00:38:54.957Z,101003.45
2023-02-16T00:41:43.446Z,101002.61
2023-02-16T00:44:16.958Z,101006.33
2023-02-16T00:46:45.714Z,101006.25
2023-02-16T00:49:18.773Z,101004.30
2023-02-16T00:51:49.939Z,101005.48
2023-02-16T00:54:18.552Z,101013.34
2023-02-16T00:56:47.241Z,101009.96
2023-02-16T00:59:18.943Z,101008.99
2023-02-16T01:01:47.859Z,101009.83
2023-02-16T01:04:21.761Z,101005.45
2023-02-16T01:07:09.030Z,101001.82
2023-02-16T01:09:56.543Z,101005.61
2023-02-16T01:12:25.221Z,101010.52
2023-02-16T01:14:55.429Z,101007.20
2023-02-16T01:17:27.209Z,101006.23
2023-02-16T01:19:58.282Z,101006.40
2023-02-16T01:22:27.402Z,101010.08
2023-02-16T01:24:55.797Z,101011.89
2023-02-16T01:27:24.563Z,101015.83
2023-02-16T01:29:53.155Z,101015.83
2023-02-16T01:32:21.830Z,101015.41
2023-02-16T01:34:50.458Z,101017.11
2023-02-16T01:37:20.027Z,101016.08
2023-02-16T01:39:49.844Z,101010.66
2023-02-16T01:42:36.118Z,101013.27
2023-02-16T01:45:13.790Z,101012.20
2023-02-16T01:47:55.328Z,101016.83
2023-02-16T01:50:26.929Z,101016.14
2023-02-16T01:53:04.190Z,101012.32
2023-02-16T01:55:44.333Z,101011.86
2023-02-16T01:58:23.040Z,101015.09
2023-02-16T02:00:55.101Z,101014.02
2023-02-16T02:03:55.600Z,101016.38
2023-02-16T02:06:33.007Z,101021.31
2023-02-16T02:09:07.551Z,101018.50
2023-02-16T02:11:41.924Z,101019.34
2023-02-16T02:14:19.543Z,101024.14
2023-02-16T02:16:59.643Z,101022.22
2023-02-16T02:19:29.278Z,101017.39
2023-02-16T02:22:19.924Z,101016.95
2023-02-16T02:25:25.817Z,101020.78
2023-02-16T02:27:58.223Z,101019.78
2023-02-16T02:31:02.605Z,101017.89
2023-02-16T02:33:42.402Z,101019.18
2023-02-16T02:36:51.414Z,101013.00
2023-02-16T02:39:46.020Z,101012.08
2023-02-16T02:42:24.056Z,101016.71
2023-02-16T02:45:00.078Z,101012.41
2023-02-16T02:47:42.994Z,101014.39
2023-02-16T02:50:41.276Z,101011.13
2023-02-16T02:53:13.369Z,101011.72
2023-02-16T02:56:05.410Z,101005.73
2023-02-16T02:59:12.868Z,100999.14
2023-02-16T03:01:43.972Z,100997.99
2023-02-16T03:04:12.765Z,100991.06
2023-02-16T03:06:44.226Z,100987.31
2023-02-16T03:09:14.551Z,100993.24
2023-02-16T03:12:02.096Z,100989.11
2023-02-16T03:14:38.165Z,100987.25
2023-02-16T03:17:36.340Z,100985.61
2023-02-16T03:20:26.734Z,100982.98
2023-02-16T03:23:14.097Z,100976.77
2023-02-16T03:26:02.235Z,100974.32
2023-02-16T03:28:50.936Z,100967.80
2023-02-16T03:31:25.725Z,100963.45
2023-02-16T03:33:55.274Z,100959.47
2023-02-16T03:36:24.611Z,100953.86
2023-02-16T03:38:55.825Z,100952.52
2023-02-16T03:41:25.272Z,100943.89
2023-02-16T03:43:53.842Z,100943.65
2023-02-16T03:46:22.973Z,100940.02
2023-02-16T03:48:51.461Z,100936.64
2023-02-16T03:51:20.261Z,100932.20
2023-02-16T03:53:50.468Z,100929.58
2023-02-16T03:56:19.498Z,100931.95
2023-02-16T03:58:48.524Z,100931.21
2023-02-16T04:01:17.267Z,100934.88
2023-02-16T04:03:45.963Z,100929.60
2023-02-16T04:06:15.108Z,100929.33
2023-02-16T04:08:43.838Z,100924.88
2023-02-16T04:11:50.208Z,100920.18
2023-02-16T04:14:19.611Z,100917.84
2023-02-16T04:16:56.286Z,100914.34
2023-02-16T04:19:25.100Z,100909.90
2023-02-16T04:21:53.670Z,100906.95
2023-02-16T04:24:23.488Z,100904.70
2023-02-16T04:26:52.077Z,100897.69
2023-02-16T04:29:20.701Z,100893.86
2023-02-16T04:31:50.100Z,100886.46
2023-02-16T04:34:19.555Z,100882.32
2023-02-16T04:36:48.133Z,100871.83
2023-02-16T04:39:17.683Z,100867.05
2023-02-16T04:41:46.516Z,100859.95
2023-02-16T04:44:15.022Z,100855.40
2023-02-16T04:46:43.968Z,100847.13
2023-02-16T04:49:13.434Z,100847.34
2023-02-16T04:51:42.340Z,100842.52
2023-02-16T04:54:11.228Z,100836.56
2023-02-16T04:56:39.931Z,100830.95
2023-02-16T04:59:08.881Z,100824.48
2023-02-16T05:01:37.787Z,100819.69
2023-02-16T05:04:10.943Z,100814.19
2023-02-16T05:06:39.728Z,100810.41
2023-02-16T05:09:08.425Z,100807.66
2023-02-16T05:11:57.133Z,100801.36
2023-02-16T05:14:43.327Z,100796.23
2023-02-16T05:17:15.236Z,100790.11
2023-02-16T05:19:52.055Z,100785.50
2023-02-16T05:22:21.176Z,100776.95
2023-02-16T05:24:50.217Z,100767.35
2023-02-16T05:27:29.580Z,100760.68
2023-02-16T05:29:58.420Z,100752.33
2023-02-16T05:32:27.218Z,100741.14
2023-02-16T05:34:55.852Z,100731.61
2023-02-16T05:37:26.163Z,100729.95
2023-02-16T05:39:55.311Z,100724.36
2023-02-16T05:42:24.265Z,100718.27
2023-02-16T05:44:53.380Z,100709.95
2023-02-16T05:47:22.114Z,100707.10
2023-02-16T05:49:51.104Z,100695.09
2023-02-16T05:52:19.904Z,100691.10
2023-02-16T05:54:48.498Z,100685.47
2023-02-16T05:57:19.405Z,100675.88
2023-02-16T05:59:47.964Z,100670.89
2023-02-16T06:02:16.770Z,100664.47
2023-02-16T06:04:45.464Z,100651.10
2023-02-16T06:07:15.018Z,100650.01
2023-02-16T06:09:44.095Z,100643.46
2023-02-16T06:12:12.830Z,100637.05
2023-02-16T06:14:43.633Z,100627.59
2023-02-16T06:17:12.458Z,100615.23
2023-02-16T06:19:42.160Z,100604.19
2023-02-16T06:22:11.784Z,100595.41
2023-02-16T06:24:40.738Z,100589.10
2023-02-16T06:27:09.424Z,100588.04
2023-02-16T06:29:37.874Z,100589.64
2023-02-16T06:32:07.794Z,100588.24
2023-02-16T06:34:36.530Z,100590.44
2023-02-16T06:37:06.707Z,100593.85
2023-02-16T06:39:35.641Z,100601.77
2023-02-16T06:42:04.548Z,100606.11
2023-02-16T06:44:34.594Z,100610.56
2023-02-16T06:47:03.420Z,100613.96
2023-02-16T06:49:33.022Z,100614.43
2023-02-16T06:52:06.418Z,100618.52
2023-02-16T06:54:35.233Z,100615.48
2023-02-16T06:57:04.193Z,100615.09
2023-02-16T06:59:33.763Z,100619.08
2023-02-16T07:02:02.472Z,100617.35
2023-02-16T07:04:32.053Z,100622.02
2023-02-16T07:07:00.954Z,100626.52
2023-02-16T07:09:29.599Z,100632.57
2023-02-16T07:11:58.798Z,100643.06
2023-02-16T07:14:27.547Z,100654.63
2023-02-16T07:16:59.402Z,100659.73
2023-02-16T07:19:28.374Z,100665.27
2023-02-16T07:21:57.048Z,100677.20
2023-02-16T07:24:25.710Z,100692.61
2023-02-16T07:26:55.507Z,100705.08
2023-02-16T07:29:24.599Z,100721.48
2023-02-16T07:31:53.731Z,100741.77
2023-02-16T07:34:22.582Z,100764.58
2023-02-16T07:36:51.496Z,100783.06
2023-02-16T07:39:20.575Z,100795.51
2023-02-16T07:41:49.474Z,100805.27
2023-02-16T07:44:19.686Z,100813.17
2023-02-16T07:46:48.423Z,100823.76
2023-02-16T07:49:17.118Z,100837.42
2023-02-16T07:51:45.930Z,100844.52
2023-02-16T07:54:15.325Z,100858.50
2023-02-16T07:56:44.466Z,100881.17
2023-02-16T07:59:17.304Z,100893.88
2023-02-16T08:01:45.992Z,100906.41
2023-02-16T08:04:15.160Z,100920.30
2023-02-16T08:06:44.419Z,100937.16
2023-02-16T08:09:13.004Z,100948.64
2023-02-16T08:11:44.895Z,100970.30
2023-02-16T08:14:14.902Z,100987.50
2023-02-16T08:16:43.508Z,101005.64
2023-02-16T08:19:14.138Z,101023.96
2023-02-16T08:21:47.603Z,101030.48
2023-02-16T08:24:16.404Z,101041.65
2023-02-16T08:26:45.360Z,101054.29
2023-02-16T08:29:15.141Z,101063.36
2023-02-16T08:31:44.363Z,101081.09
2023-02-16T08:34:16.930Z,101093.23
2023-02-16T08:36:46.019Z,101092.70
2023-02-16T08:39:19.155Z,101100.38
2023-02-16T08:41:48.871Z,101109.90
2023-02-16T08:44:18.263Z,101119.82
2023-02-16T08:46:47.711Z,101120.00
2023-02-16T08:49:17.561Z,101132.13
2023-02-16T08:51:51.384Z,101140.91
2023-02-16T08:54:31.022Z,101139.69
2023-02-16T08:57:03.185Z,101147.96
2023-02-16T08:59:33.825Z,101159.87
2023-02-16T09:02:03.578Z,101174.48
2023-02-16T09:04:33.921Z,101172.46
2023-02-16T09:07:03.686Z,101169.73
2023-02-16T09:09:35.820Z,101170.48
2023-02-16T09:12:05.331Z,101172.58
2023-02-16T09:14:35.303Z,101179.73
2023-02-16T09:17:04.217Z,101182.19
2023-02-16T09:19:34.357Z,101185.02
2023-02-16T09:22:04.408Z,101193.16
2023-02-16T09:24:34.530Z,101196.46
2023-02-16T09:27:20.971Z,101195.43
2023-02-16T09:29:50.125Z,101203.35
2023-02-16T09:32:19.988Z,101214.21
2023-02-16T09:34:50.486Z,101212.34
2023-02-16T09:37:19.973Z,101215.31
2023-02-16T09:39:48.812Z,101213.37
2023-02-16T09:42:44.954Z,101208.95
2023-02-16T09:45:15.726Z,101205.73
2023-02-16T09:47:46.575Z,101211.61
2023-02-16T09:50:17.173Z,101212.05
2023-02-16T09:52:54.431Z,101213.35
2023-02-16T09:55:23.167Z,101214.29
2023-02-16T09:58:05.243Z,101217.17
2023-02-16T10:00:40.075Z,101219.95
2023-02-16T10:03:38.803Z,101221.68
2023-02-16T10:06:23.490Z,101220.17
2023-02-16T10:09:03.091Z,101217.77
2023-02-16T10:11:48.289Z,101222.80
2023-02-16T10:14:32.924Z,101227.02
2023-02-16T10:17:15.445Z,101230.31
2023-02-16T10:19:54.865Z,101231.45
2023-02-16T10:22:39.349Z,101226.99
2023-02-16T10:25:29.890Z,101239.48
2023-02-16T10:28:23.065Z,101241.84
2023-02-16T10:30:56.718Z,101249.17
2023-02-16T10:33:46.017Z,101252.96
2023-02-16T10:36:39.410Z,101264.52
2023-02-16T10:39:46.951Z,101265.17
2023-02-16T10:42:35.726Z,101269.41
2023-02-16T10:45:11.380Z,101266.06
2023-02-16T10:47:43.853Z,101265.27
2023-02-16T10:50:42.424Z,101264.62
2023-02-16T10:53:18.033Z,101273.65
2023-02-16T10:55:49.153Z,101284.19
2023-02-16T10:58:24.074Z,101286.20
2023-02-16T11:01:22.314Z,101285.64
2023-02-16T11:03:53.244Z,101284.89
2023-02-16T11:06:23.501Z,101288.02
2023-02-16T11:09:00.258Z,101282.20
2023-02-16T11:11:37.143Z,101275.98
2023-02-16T11:14:09.168Z,101285.04
2023-02-16T11:16:37.922Z,101283.08
2023-02-16T11:19:25.133Z,101280.13
2023-02-16T11:21:59.209Z,101279.23
2023-02-16T11:24:28.059Z,101278.82
2023-02-16T11:27:23.020Z,101283.96
2023-02-16T11:29:52.057Z,101279.94
2023-02-16T11:32:21.761Z,101277.14
2023-02-16T11:34:51.239Z,101277.48
2023-02-16T11:37:28.949Z,101270.65
2023-02-16T11:40:00.639Z,101264.19
2023-02-16T11:42:36.309Z,101255.48
2023-02-16T11:45:05.461Z,101255.08
2023-02-16T11:47:38.610Z,101240.56
2023-02-16T11:50:21.200Z,101232.88
2023-02-16T11:52:50.748Z,101220.48
2023-02-16T11:55:29.026Z,101213.02
2023-02-16T11:57:57.721Z,101200.38
2023-02-16T12:00:27.153Z,101188.48
2023-02-16T12:03:19.233Z,101175.02
2023-02-16T12:05:54.745Z,101166.62
2023-02-16T12:08:27.133Z,101154.81
2023-02-16T12:11:10.253Z,101137.30
2023-02-16T12:13:39.019Z,101133.67
2023-02-16T12:16:56.871Z,101120.23
2023-02-16T12:19:28.586Z,101144.11
2023-02-16T12:22:24.125Z,101166.92
2023-02-16T12:25:26.309Z,101156.38
2023-02-16T12:27:56.890Z,101139.19
2023-02-16T12:30:48.764Z,101121.86
2023-02-16T12:33:37.864Z,101094.99
2023-02-16T12:36:20.353Z,101086.02
2023-02-16T12:38:57.003Z,101089.95
2023-02-16T12:42:13.937Z,101073.83
2023-02-16T12:44:49.337Z,101062.66
2023-02-16T12:47:26.378Z,101064.25
2023-02-16T12:50:28.401Z,101031.40
2023-02-16T12:53:10.528Z,101015.39
2023-02-16T12:55:44.984Z,101040.83
2023-02-16T12:58:13.980Z,101040.66
2023-02-16T13:00:45.703Z,101035.77
2023-02-16T13:04:09.905Z,101032.45
2023-02-16T13:06:47.453Z,101035.08
2023-02-16T13:09:41.568Z,101025.91
2023-02-16T13:12:24.953Z,101027.20
2023-02-16T13:15:17.588Z,101020.66
2023-02-16T13:17:53.417Z,101000.55
2023-02-16T13:20:22.469Z,100990.91
2023-02-16T13:23:56.372Z,100995.48
2023-02-16T13:26:37.305Z,100999.13
2023-02-16T13:29:25.409Z,100994.11
2023-02-16T13:32:03.490Z,100995.45
2023-02-16T13:35:01.665Z,101027.29
2023-02-16T13:37:49.287Z,101017.34
2023-02-16T13:40:46.818Z,101010.56
2023-02-16T13:43:34.628Z,101003.86
2023-02-16T13:46:06.160Z,100973.32
2023-02-16T13:48:40.829Z,100955.34
2023-02-16T13:51:14.198Z,100944.98
2023-02-16T13:53:43.481Z,100931.63
2023-02-16T13:56:24.195Z,100932.54
2023-02-16T13:58:53.365Z,100931.34
2023-02-16T14:01:32.532Z,100925.05
2023-02-16T14:04:02.218Z,100910.52
2023-02-16T14:06:38.604Z,100930.54
2023-02-16T14:09:16.656Z,100959.47
2023-02-16T14:11:55.152Z,100961.36
2023-02-16T14:14:31.922Z,100958.14
2023-02-16T14:17:33.085Z,100963.27
2023-02-16T14:20:04.254Z,100968.02
2023-02-16T14:22:45.807Z,100957.84
2023-02-16T14:25:23.860Z,100945.36
2023-02-16T14:27:58.142Z,100933.83
2023-02-16T14:30:32.065Z,100923.83
2023-02-16T14:33:07.143Z,100922.80
2023-02-16T14:35:40.122Z,100927.59
2023-02-16T14:38:30.274Z,100928.14
2023-02-16T14:41:01.374Z,100931.48
2023-02-16T14:43:31.697Z,100934.85
2023-02-16T14:46:14.923Z,100941.86
2023-02-16T14:48:57.846Z,100952.98
2023-02-16T14:51:48.915Z,100965.61
2023-02-16T14:54:55.536Z,100984.27
2023-02-16T14:57:37.219Z,100992.18
2023-02-16T15:00:19.879Z,101006.20
2023-02-16T15:03:24.685Z,101011.41
2023-02-16T15:05:58.504Z,101022.14
2023-02-16T15:08:35.951Z,101034.81
2023-02-16T15:11:20.985Z,101040.64
2023-02-16T15:13:53.550Z,101049.48
2023-02-16T15:16:25.454Z,101053.63
2023-02-16T15:18:55.495Z,101063.38
2023-02-16T15:21:30.905Z,101068.86
2023-02-16T15:24:00.934Z,101083.13
2023-02-16T15:26:31.804Z,101102.71
2023-02-16T15:29:13.649Z,101110.79
2023-02-16T15:31:42.542Z,101120.27
2023-02-16T15:34:13.950Z,101140.58
2023-02-16T15:36:44.001Z,101152.42
2023-02-16T15:39:18.529Z,101177.00
2023-02-16T15:41:49.223Z,101187.83
2023-02-16T15:44:36.820Z,101203.20
2023-02-16T15:47:25.445Z,101225.61
2023-02-16T15:49:54.326Z,101235.55
2023-02-16T15:52:26.802Z,101250.48
2023-02-16T15:54:55.388Z,101263.81
2023-02-16T15:57:37.109Z,101265.67
2023-02-16T16:00:25.228Z,101275.77
2023-02-16T16:02:59.142Z,101285.64
2023-02-16T16:05:28.863Z,101288.92
2023-02-16T16:07:59.796Z,101291.84
2023-02-16T16:10:32.540Z,101291.65
2023-02-16T16:13:28.454Z,101298.57
2023-02-16T16:16:02.183Z,101303.59
2023-02-16T16:18:39.438Z,101315.81
2023-02-16T16:21:29.317Z,101344.98
2023-02-16T16:24:05.347Z,101354.37
2023-02-16T16:26:55.848Z,101359.95
2023-02-16T16:29:46.526Z,101363.52
2023-02-16T16:32:22.988Z,101362.10
2023-02-16T16:34:56.704Z,101366.08
2023-02-16T16:37:31.388Z,101368.52
2023-02-16T16:40:07.448Z,101369.23
2023-02-16T16:42:39.436Z,101367.16
2023-02-16T16:45:21.751Z,101367.56
2023-02-16T16:47:51.900Z,101369.84
2023-02-16T16:50:21.175Z,101366.35
2023-02-16T16:52:50.990Z,101377.60
2023-02-16T16:55:19.902Z,101374.48
2023-02-16T16:57:53.178Z,101384.55
2023-02-16T17:00:22.753Z,101386.23
2023-02-16T17:02:51.676Z,101391.80
2023-02-16T17:05:21.129Z,101393.73
2023-02-16T17:07:54.805Z,101395.86
2023-02-16T17:10:24.746Z,101393.48
2023-02-16T17:12:58.115Z,101396.60
2023-02-16T17:15:46.582Z,101399.98
2023-02-16T17:18:18.102Z,101403.94
2023-02-16T17:20:47.522Z,101406.86
2023-02-16T17:23:19.857Z,101407.44
2023-02-16T17:25:49.897Z,101407.55
2023-02-16T17:28:20.813Z,101403.33
2023-02-16T17:30:49.719Z,101409.60
2023-02-16T17:33:18.793Z,101407.42
2023-02-16T17:35:48.610Z,101408.09
2023-02-16T17:38:19.221Z,101408.30
2023-02-16T17:40:52.426Z,101407.92
2023-02-16T17:43:21.890Z,101409.77
2023-02-16T17:45:51.721Z,101409.84
2023-02-16T17:48:28.242Z,101408.49
2023-02-16T17:50:59.715Z,101404.52
2023-02-16T17:53:28.918Z,101405.36
2023-02-16T17:55:58.192Z,101398.84
2023-02-16T17:58:27.245Z,101393.55
2023-02-16T18:00:56.296Z,101390.02
2023-02-16T18:03:28.167Z,101391.97
2023-02-16T18:05:56.979Z,101382.61
2023-02-16T18:08:25.970Z,101377.13
2023-02-16T18:11:05.273Z,101376.08
2023-02-16T18:13:34.912Z,101372.49
2023-02-16T18:16:04.680Z,101373.09
2023-02-16T18:18:39.420Z,101370.94
2023-02-16T18:21:08.526Z,101366.11
2023-02-16T18:23:37.935Z,101363.60
2023-02-16T18:26:07.344Z,101359.66
2023-02-16T18:28:36.807Z,101363.08
2023-02-16T18:31:07.005Z,101359.88
2023-02-16T18:33:37.031Z,101358.86
2023-02-16T18:36:06.742Z,101357.22
2023-02-16T18:38:37.809Z,101355.52
2023-02-16T18:41:06.866Z,101349.77
2023-02-16T18:43:37.654Z,101350.90
2023-02-16T18:46:08.125Z,101345.83
2023-02-16T18:48:37.659Z,101342.70
2023-02-16T18:51:07.304Z,101339.20
2023-02-16T18:53:39.156Z,101334.50
2023-02-16T18:56:09.314Z,101330.35
2023-02-16T18:58:41.421Z,101326.34
2023-02-16T19:01:37.962Z,101324.95
2023-02-16T19:04:08.045Z,101323.42
2023-02-16T19:06:38.701Z,101321.81
2023-02-16T19:09:11.142Z,101316.14
2023-02-16T19:11:40.186Z,101305.98
2023-02-16T19:14:09.969Z,101303.02
2023-02-16T19:16:39.926Z,101301.23
2023-02-16T19:19:09.184Z,101301.71
2023-02-16T19:21:42.786Z,101296.02
2023-02-16T19:24:15.221Z,101288.45
2023-02-16T19:26:46.952Z,101282.34
2023-02-16T19:29:16.347Z,101283.01
2023-02-16T19:31:45.323Z,101278.38
2023-02-16T19:34:15.046Z,101268.66
2023-02-16T19:36:43.895Z,101265.11
2023-02-16T19:39:13.348Z,101258.63
2023-02-16T19:41:44.123Z,101255.69
2023-02-16T19:44:14.290Z,101251.88
2023-02-16T19:46:43.729Z,101244.27
2023-02-16T19:49:13.832Z,101233.78
2023-02-16T19:51:43.251Z,101229.50
2023-02-16T19:54:12.255Z,101224.51
2023-02-16T19:56:41.502Z,101213.34
2023-02-16T19:59:16.252Z,101204.61
2023-02-16T20:01:45.125Z,101198.56
2023-02-16T20:04:19.506Z,101191.85
2023-02-16T20:06:54.639Z,101185.61
2023-02-16T20:09:24.392Z,101175.10
2023-02-16T20:11:55.221Z,101169.20
2023-02-16T20:14:25.079Z,101156.55
2023-02-16T20:16:54.013Z,101147.89
2023-02-16T20:19:23.021Z,101141.18
2023-02-16T20:21:51.988Z,101136.67
2023-02-16T20:24:21.333Z,101130.27
2023-02-16T20:26:52.390Z,101127.31
2023-02-16T20:29:22.555Z,101125.41
2023-02-16T20:31:54.052Z,101122.46
2023-02-16T20:34:23.405Z,101118.38
2023-02-16T20:36:59.002Z,101109.98
2023-02-16T20:39:28.293Z,101109.70
2023-02-16T20:41:58.612Z,101104.77
2023-02-16T20:44:27.695Z,101098.05
2023-02-16T20:46:57.342Z,101091.87
2023-02-16T20:49:26.577Z,101089.85
2023-02-16T20:51:55.460Z,101087.20
2023-02-16T20:54:24.372Z,101083.34
2023-02-16T20:56:55.602Z,101078.94
2023-02-16T20:59:24.514Z,101078.11
2023-02-16T21:01:53.705Z,101074.38
2023-02-16T21:04:23.729Z,101069.19
2023-02-16T21:06:56.801Z,101067.63
2023-02-16T21:09:25.724Z,101058.38
2023-02-16T21:11:55.174Z,101051.85
2023-02-16T21:14:24.049Z,101052.91
2023-02-16T21:16:58.138Z,101061.49
2023-02-16T21:19:28.267Z,101053.64
2023-02-16T21:21:57.249Z,101046.93
2023-02-16T21:24:25.970Z,101045.85
2023-02-16T21:26:54.821Z,101044.36
2023-02-16T21:29:23.306Z,101045.60
2023-02-16T21:31:52.185Z,101045.09
2023-02-16T21:34:23.381Z,101045.66
2023-02-16T21:36:52.164Z,101043.73
2023-02-16T21:39:42.664Z,101044.27
2023-02-16T21:42:13.491Z,101039.98
2023-02-16T21:44:50.188Z,101036.24
2023-02-16T21:47:37.802Z,101033.62
2023-02-16T21:50:07.517Z,101023.77
2023-02-16T21:52:36.404Z,101015.13
2023-02-16T21:55:24.234Z,101008.92
2023-02-16T21:57:53.177Z,101007.52
2023-02-16T22:00:21.882Z,101002.51
2023-02-16T22:02:51.308Z,100998.02
2023-02-16T22:05:20.116Z,100995.30
2023-02-16T22:07:48.985Z,100989.30
2023-02-16T22:10:17.837Z,100984.80
2023-02-16T22:12:47.207Z,100981.12
2023-02-16T22:15:15.961Z,100978.43
2023-02-16T22:17:45.692Z,100968.59
2023-02-16T22:20:14.376Z,100959.53
2023-02-16T22:22:43.831Z,100955.17
2023-02-16T22:25:12.904Z,100960.32
2023-02-16T22:27:41.775Z,100956.23
2023-02-16T22:30:10.651Z,100957.45
2023-02-16T22:32:39.500Z,100960.04
2023-02-16T22:35:08.497Z,100959.96
2023-02-16T22:37:37.195Z,100946.73
2023-02-16T22:40:06.792Z,100943.16
2023-02-16T22:42:36.418Z,100938.20
2023-02-16T22:45:05.466Z,100938.52
2023-02-16T22:47:34.269Z,100934.58
2023-02-16T22:50:03.217Z,100939.89
2023-02-16T22:52:31.980Z,100934.20
2023-02-16T22:55:00.562Z,100924.86
2023-02-16T22:57:37.257Z,100918.04
2023-02-16T23:00:08.764Z,100914.43
2023-02-16T23:02:41.027Z,100915.24
2023-02-16T23:05:09.713Z,100905.58
2023-02-16T23:07:38.908Z,100886.28
2023-02-16T23:10:08.375Z,100877.98
2023-02-16T23:12:37.427Z,100875.48
2023-02-16T23:15:06.829Z,100872.17
2023-02-16T23:17:56.211Z,100872.63
2023-02-16T23:20:25.434Z,100869.52
2023-02-16T23:22:54.541Z,100863.41
2023-02-16T23:25:35.286Z,100861.31
2023-02-16T23:28:04.360Z,100859.70
2023-02-16T23:30:33.213Z,100852.57
2023-02-16T23:33:02.284Z,100851.06
2023-02-16T23:35:30.981Z,100845.36
2023-02-16T23:38:01.729Z,100830.73
2023-02-16T23:40:31.258Z,100829.29
2023-02-16T23:43:00.803Z,100820.14
2023-02-16T23:45:29.545Z,100814.92
2023-02-16T23:47:58.840Z,100803.15
2023-02-16T23:50:27.496Z,100791.05
2023-02-16T23:52:56.028Z,100776.52
2023-02-16T23:55:24.752Z,100759.86
2023-02-16T23:57:57.536Z,100753.80
